Welcome to our Virtual Airline
Sign-in:

Flight MFC51961

  • Submitted By: Karl Klotz
  • Departure Airport: Summit (UMM)
  • Arrival Airport: Merrill (PAMR)
  • Aircraft: PIPER J-3 (N004MM-SK)
  • Flight Time: 01.57.05
  • Date Submitted: 19/05/30
  • Route: STOP-OVER AT 1. SONGLO VISTA (3AK3), 2. TALKEETNA (PATK), 3. WILLOW (PAUO)
  • Status: Accepted
Flight Details
Gross Revenue:
(6 load / $ 145.00 per unit
$ 870.00
Fuel Cost:
(59.4206 fuel used @ 5.1 / unit)
$ 303.05

Additional Log Information:

View Log

FS[10:10] ----- Flight Opened -----
FS[10:10] Cigar Box - 1.1.4.0
FS[10:10] FS: Prepar3D V4
FS[10:10] FSUIPC: v5,15
FS[10:10] Flight Number: MFC51961
FS[10:10] FS Aircraft: Islander 08
FS[10:10] FS Model: BN2B20
FS[10:10] FS Type: BRITTENNORMAN
FS[10:10] Departure: UMM
FS[10:10] Arrival: PAMR
FS[10:10] Flight Level: 4500
FS[10:10] Flight Type: H
FS[10:10] Passengers: 6
FS[10:10] FOB: 300 lbs
FS[10:10] Gate: n/a
FS[10:10] NOTE: Parking Brake Ignored
FS[10:10] Crash Detection: Disabled
FS[10:10] Engines: 2 Piston
FS[10:10] NOTE: Boarding has started
FS[10:10] Autopilot: Engaged
FS[10:10] AGL: 6 ft
FS[10:10] AMSL: 2378 ft
FS[10:10] Engine 1: Started
FS[10:10] Engine 2: Started
FS[10:10] Flaps: Position 2
FS[10:10] Main Door Closed
FS[10:10] COM1: 128.30
FS[10:10] COM2: 127.80
FS[10:10] Transponder: 1200
FS[10:10] NAV1: 113.70
FS[10:10] NAV2: 113.70
FS[10:10] ADF1: 991.0
FS[10:10] ADF2: 240.0
FS[10:10] Navigation Mode: NAV
FS[10:11] Flaps: Position 1
FS[10:11] Flaps: Position 0
FS[10:11] NOTE: Taxi started
FS[10:12] NOTE: ----- TAKE OFF -----
FS[10:12] GS: 50 knots
FS[10:12] TAS: 51 knots
FS[10:12] IAS: 49 knots
FS[10:12] VS: 5 fpm
FS[10:12] FOB: 299 lbs
FS[10:12] Heading: 25°
FS[10:12] Pitch: 0°
FS[10:12] Bank: 0°
FS[10:12] Aircraft Weight: 5511,37 lbs
FS[10:12] Nearest Airport: UMM
FS[10:12] Distance: 0,17 miles
FS[10:12] Runway: 3 - UMM
FS[10:12] Ground Surface: Gravel
FS[10:12] Ground Condition: Normal
FS[10:12] NOTE: Weather Report
FS[10:12] Wind Heading: 343°
FS[10:12] Wind Speed: 0 knots
FS[10:12] OAT: 10° C
FS[10:12] TAT: 10° C
FS[10:12] Precipitation: None
FS[10:12] Dew Point: 0° C
FS[10:12] Visibility: 62 miles
FS[10:12] METAR: UMMG 300530Z 02005G08MPS CAVOK 09/04 Q1023 R35/CLRD// NOSIGUMMS 300530Z 35005G08MPS 320V040 9999 BKN015 12/09 Q1020 R88/CLRD// NOSIG
FS[10:12] NOTE: Climb started
FS[10:12] View Mode: Virtual Cockpit
FS[10:14] NOTE: TOC reached
FS[10:14] NOTE: Cruise started
FS[10:14] GS: 91 knots
FS[10:14] TAS: 93 knots
FS[10:14] IAS: 87 knots
FS[10:14] VS: 199 fpm
FS[10:14] FOB: 292 lbs
FS[10:14] Heading: 204°
FS[10:14] Pitch: 2°
FS[10:14] Bank: 0°
FS[10:14] Aircraft Weight: 5504,83 lbs
FS[10:18] Recovery: Flight Saved
FS[10:23] Recovery: Flight Saved
FS[10:28] Recovery: Flight Saved
FS[10:33] Recovery: Flight Saved
FS[10:38] Recovery: Flight Saved
FS[10:43] Recovery: Flight Saved
FS[10:45] NOTE: TOD reached
FS[10:45] NOTE: Descent started
FS[10:45] GS: 81 knots
FS[10:45] TAS: 82 knots
FS[10:45] IAS: 78 knots
FS[10:45] VS: -442 fpm
FS[10:45] FOB: 259 lbs
FS[10:45] Heading: 215°
FS[10:45] Pitch: 0°
FS[10:45] Bank: 0°
FS[10:45] Aircraft Weight: 5471,05 lbs
FS[10:45] NOTE: On approach
FS[10:48] Recovery: Flight Saved
FS[10:53] Recovery: Flight Saved
FS[10:54] Flaps: Position 1
FS[10:54] GS: 77 knots
FS[10:54] TAS: 78 knots
FS[10:54] IAS: 77 knots
FS[10:54] VS: -199 fpm
FS[10:54] Flaps: Position 2
FS[10:54] GS: 69 knots
FS[10:54] TAS: 72 knots
FS[10:54] IAS: 70 knots
FS[10:54] VS: -771 fpm
FS[10:55] NOTE: ----- LANDED -----
FS[10:55] Landing Rate: -89,97 fpm
FS[10:55] GS: 52 knots
FS[10:55] TAS: 53 knots
FS[10:55] IAS: 52 knots
FS[10:55] VS: -86 fpm
FS[10:55] FOB: 253 lbs
FS[10:55] Heading: 157°
FS[10:55] Pitch: 4°
FS[10:55] Bank: 0°
FS[10:55] Aircraft Weight: 5465,74 lbs
FS[10:55] Nearest Airport: 3AK3
FS[10:55] Distance: 0,12 miles
FS[10:55] Runway: 15 - 3AK3
FS[10:55] Ground Surface: Gravel
FS[10:55] Ground Condition: Normal
FS[10:55] NOTE: Weather Report
FS[10:55] Wind Heading: 343°
FS[10:55] Wind Speed: 0 knots
FS[10:55] OAT: 13° C
FS[10:55] TAT: 13° C
FS[10:55] Precipitation: None
FS[10:55] Dew Point: 3° C
FS[10:55] Visibility: 62 miles
FS[10:55] METAR: PAMR 300553Z 03003KT 10SM OVC090 13/03 A3000 RMK AO2 SLP159 60000 T01280028 10183 20122 51005
FS[10:55] View Mode: Virtual Cockpit
FS[10:55] NOTE: Taxi started
FS[10:56] Flaps: Position 1
FS[10:56] Flaps: Position 0
FS[10:57] View Mode: Virtual Cockpit
FS[11:04] Recovery: Flight Saved
FS[11:07] Flaps: Position 1
FS[11:07] GS: 89 knots
FS[11:07] TAS: 90 knots
FS[11:07] IAS: 88 knots
FS[11:07] VS: -881 fpm
FS[11:08] Flaps: Position 2
FS[11:08] GS: 83 knots
FS[11:08] TAS: 84 knots
FS[11:08] IAS: 83 knots
FS[11:08] VS: -1011 fpm
FS[11:09] NOTE: ----- LANDED -----
FS[11:09] Landing Rate: -96,89 fpm
FS[11:09] GS: 52 knots
FS[11:09] TAS: 53 knots
FS[11:09] IAS: 52 knots
FS[11:09] VS: -96 fpm
FS[11:09] FOB: 238 lbs
FS[11:09] Heading: 188°
FS[11:09] Pitch: 4°
FS[11:09] Bank: 0°
FS[11:09] Aircraft Weight: 5450,19 lbs
FS[11:09] Nearest Airport: PATK
FS[11:09] Distance: 0,31 miles
FS[11:09] Runway: 18 - PATK
FS[11:09] Ground Surface: Asphalt
FS[11:09] Ground Condition: Normal
FS[11:09] NOTE: Weather Report
FS[11:09] Wind Heading: 343°
FS[11:09] Wind Speed: 0 knots
FS[11:09] OAT: 14° C
FS[11:09] TAT: 14° C
FS[11:09] Precipitation: None
FS[11:09] Dew Point: 4° C
FS[11:09] Visibility: 62 miles
FS[11:09] METAR: PAMR 300553Z 03003KT 10SM OVC090 13/03 A3000 RMK AO2 SLP159 60000 T01280028 10183 20122 51005
FS[11:09] View Mode: Virtual Cockpit
FS[11:09] Flaps: Position 1
FS[11:09] Flaps: Position 0
FS[11:11] View Mode: Virtual Cockpit
FS[11:30] Recovery: Flight Saved
FS[11:31] Flaps: Position 1
FS[11:31] GS: 87 knots
FS[11:31] TAS: 89 knots
FS[11:31] IAS: 88 knots
FS[11:31] VS: -362 fpm
FS[11:32] Flaps: Position 2
FS[11:32] GS: 75 knots
FS[11:32] TAS: 76 knots
FS[11:32] IAS: 76 knots
FS[11:32] VS: -408 fpm
FS[11:33] NOTE: ----- LANDED -----
FS[11:33] Landing Rate: -66,90 fpm
FS[11:33] GS: 54 knots
FS[11:33] TAS: 55 knots
FS[11:33] IAS: 55 knots
FS[11:33] VS: -66 fpm
FS[11:33] FOB: 209 lbs
FS[11:33] Heading: 140°
FS[11:33] Pitch: 3°
FS[11:33] Bank: 0°
FS[11:33] Aircraft Weight: 5421,99 lbs
FS[11:33] Nearest Airport: PAUO
FS[11:33] Distance: 0,31 miles
FS[11:33] Runway: 13 - PAUO
FS[11:33] Ground Surface: Gravel
FS[11:33] Ground Condition: Normal
FS[11:33] NOTE: Weather Report
FS[11:33] Wind Heading: 343°
FS[11:33] Wind Speed: 0 knots
FS[11:33] OAT: 14° C
FS[11:33] TAT: 14° C
FS[11:33] Precipitation: None
FS[11:33] Dew Point: 4° C
FS[11:33] Visibility: 62 miles
FS[11:33] METAR: PAMR 300553Z 03003KT 10SM OVC090 13/03 A3000 RMK AO2 SLP159 60000 T01280028 10183 20122 51005
FS[11:33] View Mode: Virtual Cockpit
FS[11:33] Flaps: Position 1
FS[11:34] Flaps: Position 0
FS[11:35] View Mode: Virtual Cockpit
FS[11:42] Recovery: Flight Saved
FS[11:47] Recovery: Flight Saved
FS[11:52] Recovery: Flight Saved
FS[11:57] Recovery: Flight Saved
FS[12:04] Flaps: Position 1
FS[12:04] GS: 89 knots
FS[12:04] TAS: 90 knots
FS[12:04] IAS: 89 knots
FS[12:04] VS: -290 fpm
FS[12:04] Flaps: Position 2
FS[12:04] GS: 75 knots
FS[12:04] TAS: 75 knots
FS[12:04] IAS: 74 knots
FS[12:04] VS: -165 fpm
FS[12:07] NOTE: ----- LANDED -----
FS[12:07] Landing Rate: -76,89 fpm
FS[12:07] GS: 50 knots
FS[12:07] TAS: 50 knots
FS[12:07] IAS: 50 knots
FS[12:07] VS: -76 fpm
FS[12:07] FOB: 169 lbs
FS[12:07] Heading: 252°
FS[12:07] Pitch: 4°
FS[12:07] Bank: 0°
FS[12:07] Aircraft Weight: 5381,91 lbs
FS[12:07] Nearest Airport: PAMR
FS[12:07] Distance: 0,36 miles
FS[12:07] Runway: 24 - PAMR
FS[12:07] Ground Surface: Asphalt
FS[12:07] Ground Condition: Normal
FS[12:07] NOTE: Weather Report
FS[12:07] Wind Heading: 343°
FS[12:07] Wind Speed: 0 knots
FS[12:07] OAT: 14° C
FS[12:07] TAT: 15° C
FS[12:07] Precipitation: None
FS[12:07] Dew Point: 4° C
FS[12:07] Visibility: 62 miles
FS[12:07] METAR: PAMR 300553Z 03003KT 10SM OVC090 13/03 A3000 RMK AO2 SLP159 60000 T01280028 10183 20122 51005
FS[12:07] View Mode: Virtual Cockpit
FS[12:07] Flaps: Position 1
FS[12:07] Flaps: Position 0
FS[12:08] Gate: n/a
FS[12:08] NOTE: Flight Completed
FS[12:08] FS Aircraft: Islander 08
FS[12:08] FS Model: BN2B20
FS[12:08] FS Type: BRITTENNORMAN
FS[12:08] FOB: 169 lbs
FS[12:08] Fuel Used: 131 lbs
FS[12:08] Flight Time: 01:57:05
FS[12:08] Flight Time (Dawn): 00:00:00
FS[12:08] Flight Time (Day): 01:57:05
FS[12:08] Flight Time (Dusk): 00:00:00
FS[12:08] Flight Time (Night): 00:00:00
FS[12:08] Total Landings: 4
FS[12:08] MaxSim Rate: 0x
FS[12:08] Cigar Box - 1.1.4.0
FS[12:08] ----- Flight Closed -----

Route Map